Time;durP1;ratioP1;P1;durP2;ratioP2;P2;SDS_P1;SDS_P2;PMS_P1;PMS_P2;Temp;Humidity;BMP_temperature;BMP_pressure;BME280_temperature;BME280_humidity;BME280_pressure;Samples;Min_cycle;Max_cycle;Signal;HPM_P1;HPM_P2
2022/08/30 00:02:02;;;;;;;4.38;1.83;;;19.70;99.90;;;;;;2614875;54;20132;-64
2022/08/30 00:04:32;;;;;;;4.88;1.90;;;19.70;99.90;;;;;;2615976;54;20153;-65
2022/08/30 00:07:03;;;;;;;4.40;1.88;;;19.70;99.90;;;;;;2617335;54;20252;-64
2022/08/30 00:09:34;;;;;;;5.55;2.20;;;19.60;99.90;;;;;;2616030;54;20183;-65
2022/08/30 00:12:03;;;;;;;5.45;2.10;;;19.60;99.90;;;;;;2615791;54;20133;-64
2022/08/30 00:14:33;;;;;;;4.03;1.92;;;19.60;99.90;;;;;;2616275;47;20144;-64
2022/08/30 00:17:06;;;;;;;8.38;2.03;;;19.50;99.90;;;;;;2616461;39;20537;-64
2022/08/30 00:19:36;;;;;;;4.65;2.13;;;19.50;99.90;;;;;;2615738;54;20241;-64
2022/08/30 00:22:08;;;;;;;5.50;2.08;;;19.40;99.90;;;;;;2615929;39;20555;-66
2022/08/30 00:24:38;;;;;;;3.53;2.08;;;19.50;99.90;;;;;;2615988;54;20129;-66
2022/08/30 00:27:08;;;;;;;2.90;1.83;;;19.40;99.90;;;;;;2622157;54;20168;-68
2022/08/30 00:29:38;;;;;;;6.35;2.10;;;19.40;99.90;;;;;;2623095;54;20177;-65
2022/08/30 00:32:11;;;;;;;3.50;1.98;;;19.30;99.90;;;;;;2620256;54;20137;-66
2022/08/30 00:34:40;;;;;;;6.00;2.20;;;19.40;99.90;;;;;;2619065;54;20136;-67
2022/08/30 00:37:10;;;;;;;3.05;1.92;;;19.30;99.90;;;;;;2621986;54;20145;-66
2022/08/30 00:39:40;;;;;;;3.92;1.90;;;19.30;99.90;;;;;;2620680;54;20160;-67
2022/08/30 00:42:11;;;;;;;3.47;1.67;;;19.30;99.90;;;;;;2621181;54;20148;-65
2022/08/30 00:44:41;;;;;;;3.60;2.00;;;19.30;99.90;;;;;;2622295;54;20136;-65
2022/08/30 00:47:14;;;;;;;4.22;1.98;;;19.30;99.90;;;;;;2622121;54;20151;-66
2022/08/30 00:49:49;;;;;;;3.85;1.90;;;19.30;99.90;;;;;;2621930;47;20202;-66
2022/08/30 00:52:21;;;;;;;5.50;1.80;;;19.30;99.90;;;;;;2616232;54;20152;-67
2022/08/30 00:54:53;;;;;;;4.70;1.83;;;19.30;99.90;;;;;;2616508;54;20144;-67
2022/08/30 00:57:23;;;;;;;5.25;2.20;;;19.30;99.90;;;;;;2616062;54;20146;-67
2022/08/30 00:59:53;;;;;;;4.05;1.98;;;19.30;99.90;;;;;;2615560;47;20176;-66
2022/08/30 01:02:25;;;;;;;3.28;1.85;;;19.30;99.90;;;;;;2615378;54;20144;-67
2022/08/30 01:04:56;;;;;;;3.95;1.83;;;19.30;99.90;;;;;;2615774;54;20149;-67
2022/08/30 01:07:26;;;;;;;5.13;1.88;;;19.30;99.90;;;;;;2615871;47;20149;-67
2022/08/30 01:09:56;;;;;;;5.57;2.20;;;19.30;99.90;;;;;;2615535;54;20683;-66
2022/08/30 01:12:26;;;;;;;2.55;1.80;;;19.30;99.90;;;;;;2615206;54;20152;-67
2022/08/30 01:14:56;;;;;;;4.85;2.33;;;19.40;99.90;;;;;;2615473;54;20137;-67
2022/08/30 01:17:30;;;;;;;5.97;1.98;;;19.40;99.90;;;;;;2615469;54;20152;-67
2022/08/30 01:20:03;;;;;;;4.38;1.80;;;19.40;99.90;;;;;;2615530;39;20470;-66
2022/08/30 01:22:49;;;;;;;5.03;1.90;;;19.40;99.90;;;;;;2615433;54;20136;-68
2022/08/30 01:25:31;;;;;;;2.97;1.77;;;19.40;99.90;;;;;;2615839;47;20161;-67
2022/08/30 01:28:04;;;;;;;3.75;1.85;;;19.30;99.90;;;;;;2615914;54;20152;-67
2022/08/30 01:30:37;;;;;;;6.50;2.13;;;19.20;99.90;;;;;;2615479;54;20750;-66
2022/08/30 01:33:09;;;;;;;3.08;1.70;;;19.20;99.90;;;;;;2616082;39;20582;-66
2022/08/30 01:35:47;;;;;;;3.95;1.90;;;19.20;99.90;;;;;;2618986;54;20137;-68
2022/08/30 01:38:19;;;;;;;3.40;1.77;;;19.30;99.90;;;;;;2617821;54;20136;-67
2022/08/30 01:40:52;;;;;;;4.43;1.92;;;19.20;99.90;;;;;;2616410;54;20175;-67
2022/08/30 01:43:22;;;;;;;7.53;2.15;;;19.20;99.90;;;;;;2616768;54;20686;-68
2022/08/30 01:45:51;;;;;;;4.20;2.10;;;19.20;99.90;;;;;;2615497;54;20148;-67
2022/08/30 01:48:22;;;;;;;3.90;1.73;;;19.20;99.90;;;;;;2616029;39;20554;-67
2022/08/30 01:51:00;;;;;;;2.67;1.77;;;19.20;99.90;;;;;;2616273;54;20161;-66
2022/08/30 01:53:29;;;;;;;4.38;1.80;;;19.20;99.90;;;;;;2617223;54;20136;-65
2022/08/30 01:56:02;;;;;;;4.07;1.67;;;19.20;99.90;;;;;;2616464;39;20614;-66
2022/08/30 01:58:31;;;;;;;4.72;1.95;;;19.20;99.90;;;;;;2616260;39;20549;-67
2022/08/30 02:01:01;;;;;;;3.15;1.92;;;19.20;99.90;;;;;;2616107;54;20168;-67
2022/08/30 02:03:33;;;;;;;4.55;2.13;;;19.20;99.90;;;;;;2619070;54;20193;-68
2022/08/30 02:06:06;;;;;;;5.00;2.00;;;19.20;99.90;;;;;;2617849;54;20141;-67
2022/08/30 02:08:35;;;;;;;3.80;1.73;;;19.20;99.90;;;;;;2617335;54;20141;-66
2022/08/30 02:11:08;;;;;;;3.33;1.98;;;19.20;99.90;;;;;;2617193;54;20176;-66
2022/08/30 02:13:40;;;;;;;3.97;2.00;;;19.20;99.90;;;;;;2617789;39;20196;-65
2022/08/30 02:16:12;;;;;;;2.63;1.70;;;19.10;99.90;;;;;;2617727;47;20730;-64
2022/08/30 02:18:42;;;;;;;2.45;1.92;;;19.10;99.90;;;;;;2618122;54;20709;-64
2022/08/30 02:21:13;;;;;;;2.75;1.77;;;19.00;99.90;;;;;;2618784;47;20172;-69
2022/08/30 02:23:43;;;;;;;3.15;1.80;;;19.00;99.90;;;;;;2621276;54;20145;-65
2022/08/30 02:26:16;;;;;;;5.75;2.20;;;19.00;99.90;;;;;;2618480;54;20691;-66
2022/08/30 02:28:47;;;;;;;7.32;2.10;;;19.00;99.90;;;;;;2616996;54;20144;-65
2022/08/30 02:31:18;;;;;;;4.97;1.77;;;19.00;99.90;;;;;;2616889;54;20168;-65
2022/08/30 02:33:50;;;;;;;6.90;1.92;;;19.00;99.90;;;;;;2618147;51;20137;-65
2022/08/30 02:36:20;;;;;;;2.63;1.75;;;18.90;99.90;;;;;;2618781;39;20538;-65
2022/08/30 02:38:50;;;;;;;5.53;1.95;;;18.90;99.90;;;;;;2618635;39;20636;-65
2022/08/30 02:41:23;;;;;;;4.35;1.95;;;18.90;99.90;;;;;;2618110;54;20176;-64
2022/08/30 02:43:57;;;;;;;5.60;1.90;;;18.80;99.90;;;;;;2617091;47;20141;-64
2022/08/30 02:46:27;;;;;;;2.90;1.58;;;18.80;99.90;;;;;;2616538;54;20144;-64
2022/08/30 02:49:03;;;;;;;6.80;2.10;;;18.80;99.90;;;;;;2617193;54;20140;-64
2022/08/30 02:51:53;;;;;;;4.30;1.95;;;18.80;99.90;;;;;;2617815;54;20144;-64
2022/08/30 02:54:23;;;;;;;7.40;1.90;;;18.80;99.90;;;;;;2617347;47;20137;-65
2022/08/30 02:56:56;;;;;;;2.90;1.95;;;18.70;99.90;;;;;;2617845;39;20583;-64
2022/08/30 02:59:26;;;;;;;4.95;1.90;;;18.70;99.90;;;;;;2617294;54;20715;-63
2022/08/30 03:01:55;;;;;;;4.20;2.17;;;18.70;99.90;;;;;;2618122;54;20164;-65
2022/08/30 03:04:25;;;;;;;5.10;2.40;;;18.70;99.90;;;;;;2623138;48;20145;-64
2022/08/30 03:06:56;;;;;;;5.80;1.80;;;18.70;99.90;;;;;;2623794;54;20144;-63
2022/08/30 03:09:25;;;;;;;2.67;1.83;;;18.70;99.90;;;;;;2616954;54;20183;-63
2022/08/30 03:11:58;;;;;;;2.95;2.00;;;18.60;99.90;;;;;;2615885;47;20141;-65
2022/08/30 03:14:27;;;;;;;5.20;2.03;;;18.60;99.90;;;;;;2615729;47;20143;-64
2022/08/30 03:16:57;;;;;;;4.40;2.15;;;18.70;99.90;;;;;;2616064;54;20136;-67
2022/08/30 03:19:27;;;;;;;3.33;2.03;;;18.60;99.90;;;;;;2615918;39;20593;-65
2022/08/30 03:21:57;;;;;;;4.07;2.03;;;18.30;99.90;;;;;;2615697;54;20137;-65
2022/08/30 03:24:27;;;;;;;3.03;2.00;;;18.60;99.90;;;;;;2615603;54;20137;-65
2022/08/30 03:27:00;;;;;;;5.95;2.58;;;18.60;99.90;;;;;;2615474;54;20136;-64
2022/08/30 03:29:30;;;;;;;4.15;2.15;;;18.60;99.90;;;;;;2615247;47;20175;-64
2022/08/30 03:32:00;;;;;;;4.78;2.35;;;18.60;99.90;;;;;;2615596;39;20558;-63
2022/08/30 03:34:30;;;;;;;4.97;2.00;;;18.60;99.90;;;;;;2615595;54;20137;-64
2022/08/30 03:37:00;;;;;;;3.65;2.17;;;18.60;99.90;;;;;;2618455;54;20159;-64
2022/08/30 03:39:30;;;;;;;4.03;1.92;;;18.60;99.90;;;;;;2625177;54;20167;-64
2022/08/30 03:42:02;;;;;;;4.53;2.00;;;18.60;99.90;;;;;;2618066;47;20151;-63
2022/08/30 03:44:32;;;;;;;4.60;2.35;;;18.60;99.90;;;;;;2616741;54;20141;-63
2022/08/30 03:47:02;;;;;;;5.38;2.25;;;18.60;99.90;;;;;;2616471;47;20129;-64
2022/08/30 03:49:32;;;;;;;3.33;1.90;;;18.60;99.90;;;;;;2616194;54;20183;-64
2022/08/30 03:52:02;;;;;;;6.18;2.30;;;18.60;99.90;;;;;;2616198;54;20656;-65
2022/08/30 03:54:31;;;;;;;3.97;2.28;;;18.60;99.90;;;;;;2616140;54;20145;-65
2022/08/30 03:57:04;;;;;;;3.88;2.03;;;18.50;99.90;;;;;;2616079;54;20141;-64
2022/08/30 03:59:34;;;;;;;5.22;2.05;;;18.50;99.90;;;;;;2616073;54;20175;-64
2022/08/30 04:02:04;;;;;;;5.22;2.17;;;18.60;99.90;;;;;;2616000;54;20137;-64
2022/08/30 04:04:34;;;;;;;4.90;2.08;;;18.50;99.90;;;;;;2615933;54;20264;-64
2022/08/30 04:07:04;;;;;;;2.80;2.00;;;18.50;99.90;;;;;;2615961;54;20137;-64
2022/08/30 04:09:33;;;;;;;3.30;2.30;;;18.50;99.90;;;;;;2615928;54;20183;-63
2022/08/30 04:12:06;;;;;;;4.35;2.22;;;18.40;99.90;;;;;;2616124;39;20550;-66
2022/08/30 04:14:36;;;;;;;5.40;2.50;;;18.40;99.90;;;;;;2615928;54;20144;-66
2022/08/30 04:17:06;;;;;;;4.93;2.03;;;18.40;99.90;;;;;;2616188;39;20204;-65
2022/08/30 04:19:36;;;;;;;4.15;1.90;;;18.40;99.90;;;;;;2616663;54;20175;-66
2022/08/30 04:22:06;;;;;;;3.22;1.95;;;18.50;99.90;;;;;;2616072;47;20144;-65
2022/08/30 04:24:37;;;;;;;5.93;2.42;;;18.40;99.90;;;;;;2616036;47;20144;-65
2022/08/30 04:27:10;;;;;;;3.25;2.08;;;18.40;99.90;;;;;;2616703;39;20183;-65
2022/08/30 04:29:39;;;;;;;3.80;2.15;;;18.40;99.90;;;;;;2616362;54;20179;-65
2022/08/30 04:32:09;;;;;;;3.90;2.38;;;18.40;99.90;;;;;;2617215;54;20137;-65
2022/08/30 04:34:39;;;;;;;3.67;2.30;;;18.40;99.90;;;;;;2618418;47;20148;-64
2022/08/30 04:37:09;;;;;;;8.27;2.15;;;18.40;99.90;;;;;;2620175;54;20165;-65
2022/08/30 04:39:39;;;;;;;3.97;2.70;;;18.40;99.90;;;;;;2617624;54;20249;-64
2022/08/30 04:42:11;;;;;;;4.72;2.50;;;18.40;99.90;;;;;;2622711;39;20526;-65
2022/08/30 04:44:41;;;;;;;5.15;2.22;;;18.40;99.90;;;;;;2616599;54;20136;-67
2022/08/30 04:47:11;;;;;;;4.43;2.10;;;18.40;99.90;;;;;;2616106;54;20137;-65
2022/08/30 04:49:41;;;;;;;6.35;2.50;;;18.40;99.90;;;;;;2615904;54;20167;-64
2022/08/30 04:52:10;;;;;;;7.10;2.28;;;18.40;99.90;;;;;;2616397;54;20152;-65
2022/08/30 04:54:40;;;;;;;5.05;2.22;;;18.30;99.90;;;;;;2619732;54;20140;-65
2022/08/30 04:57:12;;;;;;;5.88;2.20;;;18.30;99.90;;;;;;2620105;54;20144;-67
2022/08/30 04:59:42;;;;;;;3.35;2.38;;;18.40;99.90;;;;;;2616246;54;20153;-66
2022/08/30 05:02:12;;;;;;;5.70;2.33;;;18.40;99.90;;;;;;2617039;54;20137;-67
2022/08/30 05:05:38;;;;;;;8.93;2.90;;;18.30;99.90;;;;;;2616597;47;20153;-67
2022/08/30 05:07:34;;;;;;;5.15;2.63;;;18.30;99.90;;;;;;2615885;54;20135;-67
2022/08/30 05:10:05;;;;;;;4.00;2.30;;;18.30;99.90;;;;;;2615869;47;20168;-67
2022/08/30 05:12:42;;;;;;;3.50;2.40;;;18.30;99.90;;;;;;2622192;39;20558;-66
2022/08/30 05:15:13;;;;;;;5.50;3.05;;;18.30;99.90;;;;;;2622488;47;20180;-68
2022/08/30 05:17:43;;;;;;;5.72;2.33;;;18.40;99.90;;;;;;2618641;39;20501;-66
2022/08/30 05:20:14;;;;;;;6.60;2.35;;;18.40;99.90;;;;;;2615843;54;20168;-66
2022/08/30 05:22:48;;;;;;;3.45;2.30;;;18.40;99.90;;;;;;2614209;47;20137;-66
2022/08/30 05:25:23;;;;;;;6.82;2.60;;;18.50;99.90;;;;;;2615718;54;20188;-66
2022/08/30 05:27:56;;;;;;;7.43;2.40;;;18.50;99.90;;;;;;2616170;54;20137;-66
2022/08/30 05:30:28;;;;;;;6.80;2.65;;;18.60;99.90;;;;;;2615723;47;20179;-66
2022/08/30 05:32:57;;;;;;;6.15;2.50;;;18.60;99.90;;;;;;2618725;54;20129;-66
2022/08/30 05:35:27;;;;;;;5.88;2.45;;;18.70;99.90;;;;;;2623270;54;20151;-66
2022/08/30 05:37:57;;;;;;;7.10;2.42;;;18.70;99.90;;;;;;2616243;54;20137;-68
2022/08/30 05:40:26;;;;;;;4.63;2.08;;;18.80;99.90;;;;;;2615723;54;20175;-64
2022/08/30 05:43:00;;;;;;;5.47;2.38;;;18.90;99.90;;;;;;2616179;47;20137;-64
2022/08/30 05:45:30;;;;;;;6.68;2.42;;;18.90;99.90;;;;;;2616312;54;20144;-64
2022/08/30 05:48:00;;;;;;;4.68;2.72;;;19.00;99.90;;;;;;2616769;54;20144;-64
2022/08/30 05:50:30;;;;;;;4.97;2.60;;;19.00;99.90;;;;;;2618096;54;20288;-66
2022/08/30 05:53:00;;;;;;;7.25;2.90;;;19.10;99.90;;;;;;2619369;54;20144;-67
2022/08/30 05:55:29;;;;;;;6.90;2.80;;;19.20;99.90;;;;;;2618496;54;20144;-65
2022/08/30 05:58:02;;;;;;;4.60;2.55;;;19.30;99.90;;;;;;2619660;47;20141;-64
2022/08/30 06:00:31;;;;;;;6.18;2.50;;;19.40;99.90;;;;;;2619636;54;20183;-65
2022/08/30 06:03:01;;;;;;;8.15;3.10;;;19.40;99.90;;;;;;2618257;54;20137;-65
2022/08/30 06:05:32;;;;;;;4.20;2.60;;;19.50;99.90;;;;;;2617644;54;20157;-64
2022/08/30 06:08:04;;;;;;;7.15;2.63;;;19.60;99.90;;;;;;2616581;54;20143;-64
2022/08/30 06:10:33;;;;;;;9.35;3.30;;;19.60;99.90;;;;;;2616625;54;20176;-64
2022/08/30 06:13:06;;;;;;;5.05;2.67;;;19.70;99.90;;;;;;2617210;54;20136;-65
2022/08/30 06:15:35;;;;;;;6.82;3.03;;;19.80;99.90;;;;;;2617741;39;20563;-65
2022/08/30 06:18:05;;;;;;;6.13;3.42;;;19.80;99.90;;;;;;2616957;47;20144;-65
2022/08/30 06:20:35;;;;;;;6.88;2.85;;;19.90;99.90;;;;;;2616733;54;20176;-64
2022/08/30 06:23:05;;;;;;;5.32;3.00;;;20.00;99.90;;;;;;2618478;54;20144;-67
2022/08/30 06:25:37;;;;;;;4.97;2.67;;;20.20;99.90;;;;;;2619249;54;20129;-66
2022/08/30 06:28:13;;;;;;;6.88;2.90;;;20.20;99.90;;;;;;2617926;47;20144;-66
2022/08/30 06:30:44;;;;;;;10.45;3.20;;;20.30;99.90;;;;;;2617333;47;20176;-64
2022/08/30 06:33:14;;;;;;;10.95;3.20;;;20.40;99.90;;;;;;2618532;39;20540;-65
2022/08/30 06:35:43;;;;;;;7.50;3.05;;;20.60;99.90;;;;;;2618902;47;20137;-67
2022/08/30 06:38:28;;;;;;;9.07;3.00;;;20.60;99.90;;;;;;2616897;54;20149;-68
2022/08/30 06:40:58;;;;;;;6.68;2.85;;;20.70;99.90;;;;;;2617192;39;20612;-64
2022/08/30 06:43:30;;;;;;;7.45;2.90;;;20.80;99.90;;;;;;2618056;47;20153;-64
2022/08/30 06:46:04;;;;;;;6.25;2.63;;;20.80;99.90;;;;;;2617537;39;20211;-65
2022/08/30 06:48:36;;;;;;;4.85;2.45;;;20.90;99.90;;;;;;2619815;47;20225;-64
2022/08/30 06:51:07;;;;;;;6.57;2.58;;;21.00;99.90;;;;;;2620522;47;20173;-65
2022/08/30 06:53:38;;;;;;;5.75;2.97;;;21.10;99.90;;;;;;2618015;54;20141;-66
2022/08/30 06:56:13;;;;;;;7.20;2.83;;;21.30;99.90;;;;;;2617342;47;20146;-63
2022/08/30 06:58:48;;;;;;;5.60;2.75;;;21.30;99.90;;;;;;2618163;54;20136;-65
2022/08/30 07:01:22;;;;;;;3.97;2.65;;;21.40;99.90;;;;;;2620799;54;20176;-65
2022/08/30 07:03:54;;;;;;;8.65;3.17;;;21.50;99.90;;;;;;2621547;54;20148;-64
2022/08/30 07:06:25;;;;;;;10.18;2.75;;;21.50;99.90;;;;;;2623965;54;20137;-64
2022/08/30 07:08:55;;;;;;;7.60;2.92;;;21.60;99.90;;;;;;2621212;54;20137;-67
2022/08/30 07:11:31;;;;;;;9.77;3.17;;;21.70;99.90;;;;;;2616943;54;20168;-68
2022/08/30 07:14:04;;;;;;;8.73;2.47;;;21.80;99.90;;;;;;2616729;47;20136;-67
2022/08/30 07:16:34;;;;;;;22.92;4.95;;;21.90;99.90;;;;;;2616462;54;20137;-65
2022/08/30 07:19:03;;;;;;;7.40;3.05;;;22.00;99.90;;;;;;2616903;54;20144;-64
2022/08/30 07:21:36;;;;;;;6.95;2.42;;;22.10;99.90;;;;;;2616110;54;20564;-65
2022/08/30 07:24:08;;;;;;;6.53;2.80;;;22.20;99.90;;;;;;2617600;50;20137;-65
2022/08/30 07:26:41;;;;;;;5.32;2.60;;;22.20;99.90;;;;;;2617846;54;20137;-66
2022/08/30 07:29:14;;;;;;;8.50;2.35;;;22.30;99.90;;;;;;2619432;54;20152;-65
2022/08/30 07:31:45;;;;;;;5.90;2.17;;;22.40;99.90;;;;;;2623739;47;20200;-68
2022/08/30 07:34:14;;;;;;;6.63;2.42;;;22.40;99.90;;;;;;2618714;54;20137;-67
2022/08/30 07:36:44;;;;;;;5.38;2.47;;;22.40;99.90;;;;;;2616319;47;20129;-67
2022/08/30 07:39:14;;;;;;;3.80;2.20;;;22.50;99.90;;;;;;2616157;54;20164;-67
2022/08/30 07:41:44;;;;;;;5.25;2.30;;;22.40;99.90;;;;;;2615859;54;20172;-67
2022/08/30 07:44:16;;;;;;;8.52;2.38;;;22.50;99.90;;;;;;2615755;54;20137;-68
2022/08/30 07:46:46;;;;;;;6.30;2.42;;;22.50;99.90;;;;;;2617688;39;20563;-69
2022/08/30 07:49:16;;;;;;;7.13;2.55;;;22.60;99.90;;;;;;2617450;39;20630;-67
2022/08/30 07:51:46;;;;;;;5.47;2.58;;;22.60;99.90;;;;;;2616001;54;20225;-67
2022/08/30 07:54:16;;;;;;;6.13;2.42;;;22.60;99.90;;;;;;2615877;47;20148;-67
2022/08/30 07:56:47;;;;;;;4.43;2.33;;;22.80;99.90;;;;;;2616355;54;20144;-68
2022/08/30 07:59:19;;;;;;;4.90;2.67;;;22.90;99.90;;;;;;2616186;54;20137;-66
2022/08/30 08:01:49;;;;;;;5.43;2.40;;;23.00;99.90;;;;;;2616134;51;20136;-67
2022/08/30 08:04:20;;;;;;;5.47;2.60;;;23.00;99.90;;;;;;2619285;54;20137;-66
2022/08/30 08:06:50;;;;;;;5.72;2.78;;;23.10;99.90;;;;;;2620902;47;20701;-67
2022/08/30 08:09:20;;;;;;;4.65;2.47;;;23.10;99.90;;;;;;2618685;54;20144;-67
2022/08/30 08:11:49;;;;;;;4.75;2.63;;;23.10;99.90;;;;;;2619669;54;20496;-68
2022/08/30 08:14:22;;;;;;;5.43;2.80;;;23.20;99.90;;;;;;2618068;54;20168;-67
2022/08/30 08:16:52;;;;;;;5.68;2.38;;;23.30;99.90;;;;;;2618328;54;20145;-67
2022/08/30 08:19:22;;;;;;;8.43;2.38;;;23.40;99.90;;;;;;2618061;54;20145;-66
2022/08/30 08:21:55;;;;;;;6.22;2.80;;;23.40;99.90;;;;;;2617090;54;20168;-66
2022/08/30 08:24:45;;;;;;;5.95;2.65;;;23.50;99.90;;;;;;2616773;47;20145;-66
2022/08/30 08:27:15;;;;;;;4.72;2.40;;;23.50;99.90;;;;;;2616953;47;20136;-66
2022/08/30 08:29:47;;;;;;;6.25;2.70;;;23.60;99.90;;;;;;2616712;54;20175;-66
2022/08/30 08:32:16;;;;;;;7.10;2.22;;;23.60;99.90;;;;;;2616839;54;20144;-67
2022/08/30 08:34:46;;;;;;;8.30;2.83;;;23.70;99.90;;;;;;2617015;54;20145;-66
2022/08/30 08:37:17;;;;;;;6.43;2.45;;;23.70;99.90;;;;;;2617571;54;20145;-66
2022/08/30 08:39:51;;;;;;;3.55;2.08;;;23.70;99.90;;;;;;2618615;47;20200;-66
2022/08/30 08:42:28;;;;;;;8.88;2.90;;;23.80;99.90;;;;;;2617346;54;20145;-66
2022/08/30 08:45:05;;;;;;;6.90;2.47;;;23.80;99.90;;;;;;2617040;47;20128;-66
2022/08/30 08:47:43;;;;;;;8.45;2.30;;;23.90;99.90;;;;;;2617347;54;20137;-67
2022/08/30 08:50:16;;;;;;;5.30;2.65;;;23.90;99.90;;;;;;2616352;47;20168;-66
2022/08/30 08:55:36;;;;;;;7.70;2.35;;;24.10;99.90;;;;;;2620004;46;20176;-67
2022/08/30 08:58:06;;;;;;;10.75;2.88;;;24.20;99.90;;;;;;2619143;54;20141;-67
2022/08/30 09:00:39;;;;;;;7.65;2.75;;;24.30;99.90;;;;;;2622326;39;20627;-65
2022/08/30 09:03:15;;;;;;;5.38;2.60;;;24.40;99.90;;;;;;2617235;54;20137;-65
2022/08/30 09:05:46;;;;;;;6.18;2.30;;;24.50;99.90;;;;;;2616731;47;20136;-66
2022/08/30 09:08:18;;;;;;;5.38;2.58;;;24.60;99.90;;;;;;2616185;54;20129;-65
2022/08/30 09:10:55;;;;;;;7.15;2.60;;;24.70;99.90;;;;;;2616404;54;20176;-64
2022/08/30 09:13:27;;;;;;;7.30;2.40;;;24.80;99.90;;;;;;2618130;47;20683;-66
2022/08/30 09:16:01;;;;;;;8.23;2.53;;;24.90;99.90;;;;;;2618712;54;20144;-66
2022/08/30 09:18:44;;;;;;;5.82;2.20;;;25.00;99.90;;;;;;2623298;54;20129;-65
2022/08/30 09:21:24;;;;;;;6.38;2.75;;;25.10;99.90;;;;;;2622420;54;20168;-66
2022/08/30 09:24:00;;;;;;;4.20;2.60;;;25.20;99.90;;;;;;2616738;54;20136;-65
2022/08/30 09:26:34;;;;;;;7.85;3.30;;;25.30;99.90;;;;;;2616112;47;20140;-64
2022/08/30 09:29:04;;;;;;;7.50;3.67;;;25.40;99.90;;;;;;2615869;54;20145;-64
2022/08/30 09:31:50;;;;;;;5.20;2.90;;;25.40;99.90;;;;;;2616385;47;20165;-65
2022/08/30 09:34:34;;;;;;;8.93;3.20;;;25.60;99.90;;;;;;2616312;54;20137;-65
2022/08/30 09:37:04;;;;;;;8.93;2.53;;;25.70;99.90;;;;;;2617189;54;20137;-66
2022/08/30 09:39:40;;;;;;;5.70;2.90;;;25.80;99.90;;;;;;2617230;54;20175;-65
2022/08/30 09:42:17;;;;;;;4.10;2.35;;;25.90;99.90;;;;;;2618066;54;20152;-64
2022/08/30 09:44:47;;;;;;;3.67;2.47;;;26.00;99.90;;;;;;2618497;47;20152;-65
2022/08/30 09:47:26;;;;;;;6.32;2.45;;;26.30;99.90;;;;;;2616475;54;20137;-64
2022/08/30 09:50:06;;;;;;;6.13;2.33;;;26.30;99.90;;;;;;2615345;54;20175;-67
2022/08/30 09:52:54;;;;;;;4.60;2.60;;;26.40;99.90;;;;;;2615763;49;20160;-65
2022/08/30 09:55:46;;;;;;;6.30;2.30;;;26.50;99.90;;;;;;2616242;48;20145;-65
2022/08/30 09:58:29;;;;;;;6.88;2.40;;;26.60;99.10;;;;;;2616217;54;20137;-65
2022/08/30 10:01:08;;;;;;;3.97;2.20;;;26.60;99.50;;;;;;2617385;54;20169;-64
2022/08/30 10:03:48;;;;;;;4.18;2.42;;;26.70;99.40;;;;;;2616779;47;20160;-64
2022/08/30 10:06:28;;;;;;;6.68;2.33;;;26.90;99.50;;;;;;2616716;46;20160;-63
